Time;durP1;ratioP1;P1;durP2;ratioP2;P2;SDS_P1;SDS_P2;PMS_P1;PMS_P2;Temp;Humidity;BMP_temperature;BMP_pressure;BME280_temperature;BME280_humidity;BME280_pressure;Samples;Min_cycle;Max_cycle;Signal;HPM_P1;HPM_P2
2021/03/16 00:00:56;;;;;;;19.65;1.55;;;6.10;91.50;;;;;;5012883;28;20033;-76
2021/03/16 00:03:22;;;;;;;17.38;1.15;;;6.10;91.50;;;;;;5014337;28;20535;-76
2021/03/16 00:05:47;;;;;;;11.95;0.95;;;6.10;91.40;;;;;;5023983;28;20038;-76
2021/03/16 00:08:13;;;;;;;17.17;1.70;;;6.20;91.40;;;;;;5016587;28;20070;-76
2021/03/16 00:10:39;;;;;;;17.15;1.55;;;6.20;91.40;;;;;;4992256;28;20045;-76
2021/03/16 00:13:05;;;;;;;20.45;1.38;;;6.20;91.30;;;;;;5008524;28;20058;-76
2021/03/16 00:15:30;;;;;;;17.10;0.57;;;6.10;91.30;;;;;;5013223;28;20442;-76
2021/03/16 00:17:56;;;;;;;17.27;0.85;;;6.10;91.20;;;;;;5013543;28;20125;-76
2021/03/16 00:20:21;;;;;;;9.82;0.77;;;6.10;91.20;;;;;;5013203;28;20108;-76
2021/03/16 00:22:47;;;;;;;12.93;0.73;;;6.20;91.20;;;;;;5013452;28;20121;-76
2021/03/16 00:25:13;;;;;;;12.98;0.90;;;6.10;91.00;;;;;;5009067;28;20066;-76
2021/03/16 00:27:38;;;;;;;17.38;1.23;;;6.10;91.00;;;;;;5013813;28;20041;-76
2021/03/16 00:30:06;;;;;;;12.13;1.15;;;6.10;91.00;;;;;;5012894;28;20026;-76
2021/03/16 00:32:32;;;;;;;25.90;2.05;;;6.00;91.00;;;;;;4994334;28;20030;-76
2021/03/16 00:34:57;;;;;;;15.65;0.80;;;6.00;91.00;;;;;;5013090;28;20072;-76
2021/03/16 00:37:23;;;;;;;15.15;1.00;;;6.00;91.10;;;;;;5012859;28;20407;-76
2021/03/16 00:39:48;;;;;;;14.02;1.58;;;6.00;91.00;;;;;;5008210;28;20022;-76
2021/03/16 00:42:14;;;;;;;15.40;1.00;;;6.00;91.30;;;;;;5013432;28;20046;-76
2021/03/16 00:44:39;;;;;;;12.00;0.77;;;6.00;90.80;;;;;;5012439;28;20477;-76
2021/03/16 00:47:05;;;;;;;17.05;0.73;;;5.90;90.70;;;;;;5003763;28;20026;-76
2021/03/16 00:49:30;;;;;;;14.35;0.93;;;5.90;90.60;;;;;;5011701;28;20112;-76
2021/03/16 00:51:58;;;;;;;13.20;1.17;;;5.90;90.60;;;;;;4998366;28;20044;-76
2021/03/16 00:54:24;;;;;;;14.10;1.08;;;5.90;90.70;;;;;;5003334;28;20014;-76
2021/03/16 00:56:49;;;;;;;17.92;1.45;;;5.90;90.70;;;;;;5012677;28;20048;-76
2021/03/16 00:59:15;;;;;;;15.07;0.90;;;5.90;90.80;;;;;;5012850;28;20474;-76
2021/03/16 01:01:40;;;;;;;17.05;0.95;;;5.90;90.80;;;;;;5010819;28;20034;-76
2021/03/16 01:04:06;;;;;;;11.85;0.60;;;5.90;90.80;;;;;;5013242;28;20026;-76
2021/03/16 01:06:32;;;;;;;15.00;0.80;;;5.90;90.70;;;;;;5011383;28;20050;-76
2021/03/16 01:08:57;;;;;;;15.30;1.13;;;6.00;90.70;;;;;;5012475;28;20062;-76
2021/03/16 01:11:23;;;;;;;23.73;1.33;;;6.00;90.60;;;;;;5012469;28;20041;-76
2021/03/16 01:13:48;;;;;;;13.07;0.90;;;6.00;90.60;;;;;;5012195;28;20095;-76
2021/03/16 01:16:14;;;;;;;15.15;0.90;;;6.00;90.50;;;;;;5004206;28;20025;-76
2021/03/16 01:18:39;;;;;;;20.33;2.33;;;6.00;90.50;;;;;;4994212;28;20037;-76
2021/03/16 01:21:05;;;;;;;14.40;1.35;;;6.00;90.50;;;;;;5011436;28;20113;-76
2021/03/16 01:23:30;;;;;;;15.50;0.85;;;6.00;90.50;;;;;;5009602;28;20100;-76
2021/03/16 01:25:56;;;;;;;15.38;0.60;;;6.00;90.50;;;;;;5010533;28;20037;-76
2021/03/16 01:28:21;;;;;;;13.05;0.80;;;6.10;90.60;;;;;;5000975;28;20033;-76
2021/03/16 01:30:47;;;;;;;13.45;1.58;;;6.10;90.50;;;;;;5011331;28;20041;-76
2021/03/16 01:33:12;;;;;;;17.73;1.45;;;6.00;90.60;;;;;;5012118;28;20030;-76
2021/03/16 01:35:38;;;;;;;17.80;1.20;;;6.00;90.60;;;;;;5010367;28;20112;-76
2021/03/16 01:38:03;;;;;;;19.08;1.00;;;6.00;90.70;;;;;;4994304;28;20033;-76
2021/03/16 01:40:37;;;;;;;17.02;1.48;;;6.00;90.80;;;;;;5011547;28;20049;-76
2021/03/16 01:43:08;;;;;;;16.85;1.45;;;6.00;90.80;;;;;;5004459;28;20129;-76
2021/03/16 01:45:34;;;;;;;16.33;1.38;;;6.00;90.90;;;;;;5007289;28;20524;-75
2021/03/16 01:48:00;;;;;;;20.80;1.48;;;6.00;90.90;;;;;;5011143;28;20057;-76
2021/03/16 01:50:25;;;;;;;14.27;1.25;;;6.00;90.90;;;;;;4994237;28;20062;-76
2021/03/16 01:52:53;;;;;;;10.00;0.60;;;5.90;90.80;;;;;;5012523;28;20072;-76
2021/03/16 01:55:21;;;;;;;8.20;0.60;;;5.90;90.60;;;;;;5011629;28;20029;-76
2021/03/16 01:57:48;;;;;;;9.43;1.42;;;6.00;90.40;;;;;;5012835;28;20029;-76
2021/03/16 02:00:14;;;;;;;14.65;0.85;;;6.00;90.20;;;;;;5009912;28;20030;-76
2021/03/16 02:02:40;;;;;;;8.00;0.68;;;6.00;90.20;;;;;;5006627;28;20049;-76
2021/03/16 02:05:08;;;;;;;5.00;0.40;;;6.00;90.20;;;;;;5011335;28;20393;-76
2021/03/16 02:07:52;;;;;;;12.75;0.95;;;6.00;90.30;;;;;;5011385;28;20041;-76
2021/03/16 02:10:49;;;;;;;14.73;1.55;;;6.00;90.40;;;;;;5005357;28;20383;-76
2021/03/16 02:13:21;;;;;;;13.05;0.82;;;6.00;90.40;;;;;;5006364;28;20389;-76
2021/03/16 02:15:51;;;;;;;14.05;0.98;;;6.00;90.50;;;;;;5009697;28;20029;-76
2021/03/16 02:18:20;;;;;;;20.92;3.22;;;6.00;90.50;;;;;;5011064;28;20544;-76
2021/03/16 02:21:14;;;;;;;18.33;1.73;;;6.00;90.50;;;;;;4986689;28;20037;-76
2021/03/16 02:23:46;;;;;;;7.57;0.60;;;6.00;90.60;;;;;;5011350;28;20072;-76
2021/03/16 02:26:21;;;;;;;14.82;0.70;;;6.00;90.70;;;;;;5012696;28;20038;-76
2021/03/16 02:29:13;;;;;;;13.02;0.77;;;6.00;90.70;;;;;;5007900;28;20041;-76
2021/03/16 02:31:43;;;;;;;25.02;1.88;;;5.90;90.80;;;;;;5010597;28;20084;-76
2021/03/16 02:34:11;;;;;;;15.90;1.00;;;5.90;90.90;;;;;;5012129;28;20030;-76
2021/03/16 02:36:39;;;;;;;17.90;0.80;;;5.90;90.90;;;;;;5014541;28;20037;-76
2021/03/16 02:39:07;;;;;;;17.30;1.48;;;6.00;90.90;;;;;;5013952;28;20026;-76
2021/03/16 02:41:34;;;;;;;19.60;2.03;;;5.90;90.90;;;;;;5015899;28;20478;-76
2021/03/16 02:44:00;;;;;;;18.13;1.63;;;5.90;90.90;;;;;;5013979;28;20073;-76
2021/03/16 02:46:27;;;;;;;14.15;0.98;;;5.90;90.90;;;;;;5005442;28;20030;-76
2021/03/16 02:48:54;;;;;;;12.55;0.82;;;5.90;90.80;;;;;;4997296;28;20036;-76
2021/03/16 02:51:21;;;;;;;14.60;1.02;;;6.00;90.80;;;;;;5014419;28;20113;-76
2021/03/16 02:53:48;;;;;;;13.13;1.08;;;5.90;90.70;;;;;;5014359;28;20025;-76
2021/03/16 02:56:15;;;;;;;10.10;0.68;;;6.00;90.70;;;;;;5014623;28;20367;-76
2021/03/16 02:58:42;;;;;;;11.38;0.68;;;5.90;90.70;;;;;;4996904;28;20024;-76
2021/03/16 03:01:08;;;;;;;10.02;0.63;;;5.90;90.60;;;;;;5011361;28;20033;-76
2021/03/16 03:03:36;;;;;;;8.88;0.85;;;5.90;90.70;;;;;;4999848;28;20060;-76
2021/03/16 03:06:02;;;;;;;15.68;0.80;;;5.90;90.60;;;;;;5012934;28;20528;-76
2021/03/16 03:08:29;;;;;;;11.50;0.82;;;5.90;90.50;;;;;;5012550;28;20030;-76
2021/03/16 03:10:56;;;;;;;9.55;0.60;;;5.90;90.40;;;;;;5014787;28;20030;-76
2021/03/16 03:13:22;;;;;;;7.60;0.68;;;5.90;90.30;;;;;;5015052;28;20478;-76
2021/03/16 03:15:47;;;;;;;12.77;1.25;;;6.00;90.30;;;;;;5011970;28;20038;-76
2021/03/16 03:18:13;;;;;;;10.75;1.05;;;5.90;90.30;;;;;;5013496;28;20018;-76
2021/03/16 03:20:38;;;;;;;16.92;1.05;;;6.00;90.30;;;;;;5012066;28;20045;-76
2021/03/16 03:23:31;;;;;;;11.73;0.70;;;6.00;90.40;;;;;;5007956;28;20107;-76
2021/03/16 03:26:00;;;;;;;19.03;0.80;;;5.90;90.40;;;;;;5014134;28;20072;-76
2021/03/16 03:28:28;;;;;;;8.68;0.80;;;6.00;90.40;;;;;;5013514;28;20483;-76
2021/03/16 03:30:59;;;;;;;14.00;0.63;;;5.90;90.40;;;;;;5013976;28;20131;-76
2021/03/16 03:33:25;;;;;;;17.52;1.13;;;6.00;90.30;;;;;;5012042;28;20053;-76
2021/03/16 03:35:51;;;;;;;12.85;1.27;;;5.90;90.20;;;;;;5005548;28;20053;-76
2021/03/16 03:38:18;;;;;;;10.10;0.70;;;6.00;90.20;;;;;;5014382;28;20097;-76
2021/03/16 03:40:45;;;;;;;11.48;0.93;;;6.00;90.10;;;;;;5013609;28;20038;-76
2021/03/16 03:43:11;;;;;;;17.90;0.80;;;6.00;90.10;;;;;;5013611;28;20037;-76
2021/03/16 03:45:38;;;;;;;13.82;0.80;;;6.00;90.20;;;;;;5011062;28;20482;-76
2021/03/16 03:48:07;;;;;;;15.15;0.73;;;6.00;90.30;;;;;;4995786;28;20437;-76
2021/03/16 03:50:33;;;;;;;10.15;0.77;;;6.00;90.40;;;;;;5008412;28;20042;-76
2021/03/16 03:53:00;;;;;;;11.77;0.80;;;5.90;90.40;;;;;;5014431;28;20022;-77
2021/03/16 03:55:28;;;;;;;15.77;1.00;;;5.90;90.50;;;;;;5012381;28;20026;-76
2021/03/16 03:57:55;;;;;;;9.45;0.75;;;5.90;90.60;;;;;;5012455;28;20037;-76
2021/03/16 04:00:21;;;;;;;17.02;1.02;;;5.90;90.70;;;;;;5013520;28;20033;-76
2021/03/16 04:02:47;;;;;;;13.48;0.95;;;5.90;90.80;;;;;;5012948;28;20482;-76
2021/03/16 04:05:14;;;;;;;17.15;2.35;;;5.80;90.80;;;;;;5014172;28;20079;-76
2021/03/16 04:07:39;;;;;;;11.50;1.30;;;5.80;91.00;;;;;;5013702;28;20080;-75
2021/03/16 04:10:08;;;;;;;17.92;1.77;;;5.80;91.10;;;;;;5013257;28;20084;-76
2021/03/16 04:12:37;;;;;;;10.80;1.02;;;5.80;91.30;;;;;;5013290;28;20058;-76
2021/03/16 04:15:14;;;;;;;20.13;2.50;;;5.80;91.40;;;;;;5013157;28;20057;-76
2021/03/16 04:17:41;;;;;;;17.88;1.50;;;5.70;91.50;;;;;;5013404;28;20072;-76
2021/03/16 04:20:08;;;;;;;16.63;1.00;;;5.70;91.80;;;;;;5012352;28;20484;-76
2021/03/16 04:22:36;;;;;;;14.55;1.25;;;5.70;91.90;;;;;;5013250;28;20034;-76
2021/03/16 04:25:02;;;;;;;19.42;1.60;;;5.70;91.90;;;;;;5011115;28;20401;-76
2021/03/16 04:27:27;;;;;;;21.52;2.35;;;5.70;92.10;;;;;;5010292;28;20438;-76
2021/03/16 04:29:53;;;;;;;16.15;1.10;;;5.70;92.20;;;;;;5012164;28;20022;-76
2021/03/16 04:32:19;;;;;;;8.77;1.13;;;5.70;92.30;;;;;;5004934;28;20040;-76
2021/03/16 04:34:45;;;;;;;15.32;1.13;;;5.70;92.40;;;;;;5011853;28;20025;-76
2021/03/16 04:37:11;;;;;;;12.57;1.75;;;5.70;92.40;;;;;;5013752;28;20132;-76
2021/03/16 04:39:37;;;;;;;22.08;1.67;;;5.70;92.40;;;;;;5008965;28;20030;-76
2021/03/16 04:42:02;;;;;;;20.95;1.38;;;5.70;92.50;;;;;;5006453;28;20033;-76
2021/03/16 04:44:28;;;;;;;17.73;1.27;;;5.70;92.60;;;;;;5012812;28;20026;-76
2021/03/16 04:46:53;;;;;;;23.00;1.38;;;5.60;92.60;;;;;;5013626;28;20068;-76
2021/03/16 04:49:19;;;;;;;13.98;1.92;;;5.60;92.70;;;;;;5004046;28;20030;-76
2021/03/16 04:51:44;;;;;;;18.77;1.45;;;5.60;92.70;;;;;;5012173;28;20099;-77
2021/03/16 04:54:10;;;;;;;14.07;1.67;;;5.60;92.80;;;;;;5011039;28;20037;-77
2021/03/16 04:56:36;;;;;;;24.50;1.65;;;5.60;92.90;;;;;;5010922;28;20033;-76
2021/03/16 04:59:01;;;;;;;18.42;1.83;;;5.60;92.90;;;;;;5008493;28;20058;-76
2021/03/16 05:01:27;;;;;;;16.08;1.60;;;5.60;92.90;;;;;;5017111;28;20067;-76
2021/03/16 05:03:54;;;;;;;14.35;1.52;;;5.60;93.00;;;;;;5015731;28;20034;-76
2021/03/16 05:06:19;;;;;;;24.75;1.77;;;5.60;93.00;;;;;;5012939;28;20393;-76
2021/03/16 05:08:45;;;;;;;14.07;1.50;;;5.60;93.00;;;;;;5013350;28;20018;-76
2021/03/16 05:11:10;;;;;;;25.10;2.55;;;5.60;93.00;;;;;;5013496;28;20042;-76
2021/03/16 05:13:36;;;;;;;16.10;1.80;;;5.60;93.00;;;;;;5013563;28;20022;-76
2021/03/16 05:16:01;;;;;;;16.23;1.60;;;5.60;93.00;;;;;;5013635;28;20030;-76
2021/03/16 05:18:28;;;;;;;19.55;1.25;;;5.60;93.10;;;;;;5012763;28;20033;-76
2021/03/16 05:20:53;;;;;;;17.92;1.85;;;5.60;93.10;;;;;;5014414;28;20045;-76
2021/03/16 05:23:19;;;;;;;21.73;1.98;;;5.60;93.20;;;;;;5012614;28;20069;-76
2021/03/16 05:25:44;;;;;;;21.63;2.05;;;5.60;93.20;;;;;;5012687;28;20029;-76
2021/03/16 05:28:10;;;;;;;17.15;1.63;;;5.60;93.20;;;;;;5004374;28;20034;-76
2021/03/16 05:30:36;;;;;;;16.85;1.92;;;5.50;93.30;;;;;;5017874;28;20072;-76
2021/03/16 05:33:03;;;;;;;24.23;3.40;;;5.50;93.30;;;;;;5014153;28;20064;-76
2021/03/16 05:35:29;;;;;;;20.60;3.05;;;5.50;93.40;;;;;;4998443;28;20033;-76
2021/03/16 05:37:55;;;;;;;17.88;1.50;;;5.50;93.40;;;;;;5013137;28;20029;-76
2021/03/16 05:40:22;;;;;;;14.18;1.77;;;5.50;93.50;;;;;;5008088;28;20030;-76
2021/03/16 05:42:50;;;;;;;15.00;1.40;;;5.50;93.50;;;;;;5009717;28;20049;-75
2021/03/16 05:45:17;;;;;;;21.40;1.88;;;5.50;93.60;;;;;;5012864;28;20029;-76
2021/03/16 05:47:44;;;;;;;15.57;1.77;;;5.50;93.60;;;;;;5011846;28;20077;-75
2021/03/16 05:50:10;;;;;;;18.52;2.20;;;5.50;93.70;;;;;;5011501;28;20049;-76
2021/03/16 05:52:36;;;;;;;17.67;1.88;;;5.50;93.70;;;;;;4995101;28;20053;-76
2021/03/16 05:55:03;;;;;;;16.42;2.13;;;5.50;93.80;;;;;;5012859;28;20390;-76
2021/03/16 05:57:29;;;;;;;16.55;1.67;;;5.50;93.80;;;;;;5010523;28;20033;-76
2021/03/16 05:59:54;;;;;;;27.48;2.22;;;5.50;94.20;;;;;;4994059;28;20033;-76
2021/03/16 06:02:20;;;;;;;18.20;2.65;;;5.50;93.90;;;;;;5009519;28;20034;-76
2021/03/16 06:04:46;;;;;;;25.80;2.97;;;5.50;93.90;;;;;;5005851;28;20033;-76
2021/03/16 06:07:15;;;;;;;24.27;2.80;;;5.50;93.90;;;;;;5014714;28;20057;-76
2021/03/16 06:09:41;;;;;;;21.77;2.25;;;5.50;94.00;;;;;;5015532;28;20084;-76
2021/03/16 06:12:08;;;;;;;23.75;2.05;;;5.50;94.00;;;;;;5016761;28;20085;-76
2021/03/16 06:14:35;;;;;;;19.90;2.05;;;5.50;94.00;;;;;;5013054;28;20034;-76
2021/03/16 06:17:01;;;;;;;16.20;1.60;;;5.60;94.10;;;;;;5016253;28;20033;-76
2021/03/16 06:19:28;;;;;;;16.65;2.70;;;5.60;94.10;;;;;;5015470;28;20048;-76
2021/03/16 06:22:01;;;;;;;20.40;2.03;;;5.60;94.00;;;;;;5015090;28;20030;-76
2021/03/16 06:24:27;;;;;;;29.60;3.00;;;5.60;94.10;;;;;;5016093;28;20113;-76
2021/03/16 06:26:53;;;;;;;22.58;3.00;;;5.70;94.10;;;;;;5016178;28;20065;-76
2021/03/16 06:29:19;;;;;;;22.38;3.30;;;5.70;94.10;;;;;;5012443;28;20516;-76
2021/03/16 06:31:44;;;;;;;22.85;2.30;;;5.70;94.10;;;;;;5011818;28;20034;-76
2021/03/16 06:34:24;;;;;;;22.38;2.47;;;5.70;94.00;;;;;;5009089;28;20034;-76
2021/03/16 06:37:00;;;;;;;19.13;1.85;;;5.80;94.00;;;;;;5014099;28;20524;-77
2021/03/16 06:39:26;;;;;;;22.73;2.10;;;5.90;94.10;;;;;;5010880;28;20383;-77
2021/03/16 06:41:53;;;;;;;19.58;2.05;;;5.90;94.10;;;;;;5003428;28;20654;-77
2021/03/16 06:44:20;;;;;;;27.20;2.00;;;5.90;94.00;;;;;;5013011;28;20025;-75
2021/03/16 06:46:58;;;;;;;18.58;2.28;;;6.00;94.00;;;;;;5019701;28;20145;-75
2021/03/16 06:49:25;;;;;;;18.40;2.08;;;6.00;94.00;;;;;;5000975;28;20036;-76
2021/03/16 06:51:54;;;;;;;23.70;1.67;;;6.00;94.00;;;;;;5012074;28;20041;-76
2021/03/16 06:54:26;;;;;;;22.27;1.98;;;6.10;93.90;;;;;;5013883;28;20089;-76
2021/03/16 06:57:01;;;;;;;15.77;1.85;;;6.10;93.90;;;;;;5013500;28;20109;-76
2021/03/16 06:59:30;;;;;;;21.27;2.33;;;6.10;93.90;;;;;;5011938;28;20029;-76
2021/03/16 07:01:58;;;;;;;26.40;2.60;;;6.10;93.80;;;;;;5016135;28;20036;-77
2021/03/16 07:04:26;;;;;;;21.60;2.25;;;6.10;93.90;;;;;;5011944;28;20425;-77
2021/03/16 07:06:53;;;;;;;18.20;2.78;;;6.10;93.90;;;;;;5005706;28;20074;-76
2021/03/16 07:09:19;;;;;;;15.30;1.60;;;6.10;93.90;;;;;;5011715;28;20073;-76
2021/03/16 07:11:50;;;;;;;18.27;2.05;;;6.10;94.00;;;;;;4997079;28;20042;-77
2021/03/16 07:14:18;;;;;;;22.90;2.63;;;6.10;94.00;;;;;;5008325;28;20029;-75
2021/03/16 07:16:45;;;;;;;25.33;3.15;;;6.10;94.00;;;;;;4997565;28;20518;-75
2021/03/16 07:19:11;;;;;;;21.40;1.83;;;6.10;94.00;;;;;;4997210;28;20022;-75
2021/03/16 07:21:41;;;;;;;23.30;2.28;;;6.20;94.10;;;;;;5010579;28;20200;-75
2021/03/16 07:24:09;;;;;;;25.13;3.95;;;6.20;94.10;;;;;;5012040;28;20367;-75
2021/03/16 07:26:35;;;;;;;20.48;2.28;;;6.30;94.10;;;;;;5016894;28;20125;-75
2021/03/16 07:29:04;;;;;;;22.05;1.80;;;6.30;94.10;;;;;;5011197;28;20497;-75
2021/03/16 07:31:37;;;;;;;27.13;1.80;;;6.40;94.10;;;;;;5011064;28;20048;-75
2021/03/16 07:34:05;;;;;;;19.85;2.20;;;6.40;94.00;;;;;;5006528;28;20117;-75
2021/03/16 07:36:32;;;;;;;13.38;2.08;;;6.50;93.90;;;;;;5011684;28;20036;-75
2021/03/16 07:38:58;;;;;;;16.10;1.52;;;6.60;93.90;;;;;;5011824;28;20053;-76
2021/03/16 07:41:24;;;;;;;22.92;3.17;;;6.70;93.80;;;;;;5012466;28;20026;-77
2021/03/16 07:44:08;;;;;;;16.63;2.35;;;6.80;93.70;;;;;;5014881;28;20014;-77
2021/03/16 07:46:46;;;;;;;19.63;2.53;;;6.90;93.50;;;;;;5014714;28;20105;-77
2021/03/16 07:49:15;;;;;;;22.48;3.05;;;6.90;93.20;;;;;;5013454;28;20022;-76
2021/03/16 07:51:43;;;;;;;27.88;1.92;;;7.00;93.20;;;;;;4995920;28;20037;-76
2021/03/16 07:54:10;;;;;;;21.58;3.10;;;7.00;93.20;;;;;;5011835;28;20057;-75
2021/03/16 07:56:37;;;;;;;17.70;2.55;;;7.00;92.70;;;;;;5020827;28;20054;-76
2021/03/16 07:59:04;;;;;;;14.20;1.98;;;7.00;92.50;;;;;;5006476;28;20018;-75
2021/03/16 08:01:30;;;;;;;17.83;1.75;;;7.00;92.20;;;;;;5011567;28;20022;-76
2021/03/16 08:04:09;;;;;;;13.07;1.55;;;6.90;92.30;;;;;;5012698;28;20037;-75
2021/03/16 08:06:36;;;;;;;14.00;1.15;;;6.90;92.30;;;;;;5013611;28;20476;-76
2021/03/16 08:09:17;;;;;;;13.32;1.40;;;6.90;92.30;;;;;;5009646;28;20026;-76
2021/03/16 08:11:43;;;;;;;8.75;1.10;;;7.00;92.10;;;;;;5019769;28;20099;-76
2021/03/16 08:14:09;;;;;;;10.05;1.05;;;7.00;92.00;;;;;;5016351;28;20022;-76
2021/03/16 08:16:41;;;;;;;14.93;1.35;;;7.00;92.30;;;;;;5003354;28;20182;-76
2021/03/16 08:19:16;;;;;;;17.02;2.55;;;7.10;92.00;;;;;;4996051;28;20382;-76
2021/03/16 08:21:43;;;;;;;17.30;2.15;;;7.10;92.00;;;;;;5014375;28;20109;-76
2021/03/16 08:24:11;;;;;;;18.02;2.95;;;7.10;92.20;;;;;;5009893;28;20034;-76
2021/03/16 08:26:47;;;;;;;15.13;2.63;;;7.10;92.10;;;;;;5003012;28;20018;-76
2021/03/16 08:29:14;;;;;;;21.30;2.75;;;7.20;92.20;;;;;;5012863;28;20432;-77
2021/03/16 08:31:40;;;;;;;25.67;3.38;;;7.10;92.10;;;;;;5013099;28;20034;-77
2021/03/16 08:34:09;;;;;;;20.80;2.63;;;7.10;92.50;;;;;;5012086;28;20021;-77
2021/03/16 08:36:42;;;;;;;17.45;2.88;;;7.10;92.40;;;;;;5012077;28;20386;-76
2021/03/16 08:39:09;;;;;;;17.88;1.75;;;7.10;92.40;;;;;;5010291;28;20026;-76
2021/03/16 08:41:35;;;;;;;22.75;2.95;;;7.20;92.50;;;;;;5011178;28;20564;-76
2021/03/16 08:44:00;;;;;;;22.58;2.55;;;7.20;92.40;;;;;;5013766;28;20065;-76
2021/03/16 08:46:36;;;;;;;14.38;1.88;;;7.20;92.10;;;;;;5012978;28;20486;-76
2021/03/16 08:49:03;;;;;;;20.30;2.80;;;7.20;92.00;;;;;;5005090;28;20029;-76
2021/03/16 08:51:30;;;;;;;23.63;3.13;;;7.20;92.00;;;;;;5000242;28;20044;-76
2021/03/16 08:53:56;;;;;;;16.00;1.80;;;7.20;91.90;;;;;;5012191;28;20018;-76
2021/03/16 08:56:22;;;;;;;18.38;2.08;;;7.20;91.80;;;;;;5002164;28;20109;-77
2021/03/16 08:58:48;;;;;;;18.27;2.35;;;7.20;91.70;;;;;;5017777;28;20030;-76
2021/03/16 09:01:31;;;;;;;16.83;2.17;;;7.20;91.80;;;;;;5011428;28;20148;-76
2021/03/16 09:04:07;;;;;;;6.90;0.68;;;7.30;91.70;;;;;;5010329;28;20082;-77
2021/03/16 09:06:32;;;;;;;5.25;0.70;;;7.20;91.10;;;;;;5012881;28;20429;-75
2021/03/16 09:08:58;;;;;;;3.85;0.50;;;7.10;90.70;;;;;;5012987;28;20105;-75
2021/03/16 09:11:45;;;;;;;9.98;0.80;;;7.00;90.50;;;;;;5023274;28;20037;-76
2021/03/16 09:14:18;;;;;;;9.60;0.77;;;7.10;90.70;;;;;;5007924;28;20355;-77
2021/03/16 09:16:49;;;;;;;15.50;1.60;;;7.20;90.80;;;;;;5014062;28;20079;-76
2021/03/16 09:19:18;;;;;;;15.48;1.10;;;7.40;90.60;;;;;;5008053;28;20128;-75
2021/03/16 09:21:51;;;;;;;10.48;0.93;;;7.50;90.60;;;;;;5023042;28;20025;-75
2021/03/16 09:24:25;;;;;;;10.45;0.90;;;7.60;90.20;;;;;;5013380;28;20064;-77
2021/03/16 09:26:53;;;;;;;8.60;1.25;;;7.60;90.20;;;;;;5009409;28;20026;-75
2021/03/16 09:29:19;;;;;;;9.57;0.93;;;7.80;90.10;;;;;;5011541;28;20092;-76
2021/03/16 09:31:45;;;;;;;10.60;1.20;;;7.90;89.10;;;;;;4994436;28;20068;-76
2021/03/16 09:34:14;;;;;;;16.38;0.75;;;8.00;88.50;;;;;;5009611;28;20030;-76
2021/03/16 09:36:40;;;;;;;9.90;0.88;;;8.00;87.60;;;;;;5009427;28;20029;-77
2021/03/16 09:39:06;;;;;;;9.35;0.70;;;8.00;86.80;;;;;;5004416;28;20390;-77
2021/03/16 09:41:31;;;;;;;14.75;1.00;;;7.90;86.40;;;;;;5014566;28;20409;-78
2021/03/16 09:43:57;;;;;;;6.18;0.80;;;7.90;86.70;;;;;;5023099;28;20382;-76
2021/03/16 09:46:23;;;;;;;8.82;1.65;;;8.00;87.50;;;;;;5017189;28;20111;-77
2021/03/16 09:48:55;;;;;;;11.30;1.00;;;8.10;87.80;;;;;;5010276;28;20098;-75
2021/03/16 09:51:26;;;;;;;13.60;1.25;;;8.20;87.70;;;;;;5012886;28;20052;-76
2021/03/16 09:53:55;;;;;;;16.10;1.58;;;8.30;88.00;;;;;;5014028;28;20037;-76
2021/03/16 09:56:29;;;;;;;13.30;1.02;;;8.30;87.80;;;;;;5010997;28;20037;-75
2021/03/16 09:58:58;;;;;;;13.60;1.35;;;8.30;87.10;;;;;;5018213;28;20026;-75
2021/03/16 10:01:24;;;;;;;11.88;2.17;;;8.40;86.90;;;;;;5003094;28;20037;-76
2021/03/16 10:03:57;;;;;;;21.25;1.55;;;8.40;86.50;;;;;;5021050;28;20022;-75
2021/03/16 10:06:43;;;;;;;16.52;1.10;;;8.50;86.10;;;;;;5017413;28;20077;-75
2021/03/16 10:09:18;;;;;;;8.25;0.80;;;8.60;86.30;;;;;;5018158;28;20014;-76
2021/03/16 10:11:44;;;;;;;9.55;1.73;;;8.70;85.10;;;;;;5017107;28;20041;-75
2021/03/16 10:14:10;;;;;;;15.15;1.20;;;8.70;84.70;;;;;;4999557;28;20396;-75
2021/03/16 10:16:36;;;;;;;13.15;1.60;;;8.70;84.70;;;;;;5017130;28;20402;-75
2021/03/16 10:19:02;;;;;;;13.65;1.73;;;8.70;84.50;;;;;;5017168;28;20029;-75
2021/03/16 10:21:33;;;;;;;16.77;2.22;;;8.80;84.20;;;;;;5016981;28;20061;-75
2021/03/16 10:24:06;;;;;;;19.52;1.90;;;8.90;85.00;;;;;;5017301;28;20022;-75
2021/03/16 10:26:33;;;;;;;11.70;1.27;;;9.00;84.30;;;;;;5017550;28;20088;-75
2021/03/16 10:29:13;;;;;;;12.98;1.45;;;9.00;83.80;;;;;;4998669;28;20036;-76
2021/03/16 10:31:39;;;;;;;11.52;1.30;;;9.00;84.20;;;;;;5015575;28;20121;-75
2021/03/16 10:34:05;;;;;;;10.43;1.10;;;8.90;84.30;;;;;;5016259;28;20474;-76
2021/03/16 10:36:35;;;;;;;9.98;0.80;;;8.70;83.50;;;;;;4997863;28;20029;-76
2021/03/16 10:39:01;;;;;;;10.48;0.80;;;8.60;84.40;;;;;;5016167;28;20026;-76
2021/03/16 10:41:26;;;;;;;9.43;1.48;;;8.50;85.20;;;;;;5016316;28;20022;-76
2021/03/16 10:43:52;;;;;;;4.30;0.80;;;8.50;85.90;;;;;;5015643;28;20034;-76
2021/03/16 10:46:18;;;;;;;6.03;0.70;;;8.80;86.20;;;;;;5014973;28;20169;-76
2021/03/16 10:48:43;;;;;;;8.25;0.60;;;8.80;83.70;;;;;;5014083;28;20037;-76
2021/03/16 10:51:09;;;;;;;6.40;0.82;;;8.70;84.30;;;;;;5015474;28;20037;-76
2021/03/16 10:53:34;;;;;;;5.55;1.23;;;8.70;84.80;;;;;;5015866;28;20034;-76
2021/03/16 10:56:02;;;;;;;8.73;0.50;;;8.80;83.80;;;;;;5009421;28;20037;-76
2021/03/16 10:58:28;;;;;;;7.18;0.60;;;8.70;82.40;;;;;;5013037;28;20044;-76
2021/03/16 11:00:53;;;;;;;9.18;0.85;;;8.50;82.30;;;;;;5015746;28;20026;-74
2021/03/16 11:03:19;;;;;;;8.23;0.73;;;8.50;83.10;;;;;;5015336;28;20026;-75
2021/03/16 11:05:44;;;;;;;7.97;0.75;;;8.60;83.90;;;;;;5012996;28;20080;-74
2021/03/16 11:08:10;;;;;;;8.07;0.50;;;8.70;81.90;;;;;;5013098;28;20585;-74
2021/03/16 11:10:36;;;;;;;10.02;0.70;;;8.60;82.60;;;;;;5015489;28;20046;-74
2021/03/16 11:13:01;;;;;;;9.73;0.60;;;8.50;82.90;;;;;;5015798;28;20425;-76
2021/03/16 11:15:27;;;;;;;6.95;0.50;;;8.50;83.40;;;;;;5014779;28;20030;-75
2021/03/16 11:17:52;;;;;;;7.93;0.45;;;8.50;83.30;;;;;;5015381;28;20025;-75
2021/03/16 11:20:18;;;;;;;8.77;0.63;;;8.50;83.20;;;;;;5013666;28;20037;-75
2021/03/16 11:22:43;;;;;;;6.78;0.80;;;8.40;81.50;;;;;;5015060;28;20026;-75
2021/03/16 11:25:10;;;;;;;6.22;0.85;;;8.40;82.50;;;;;;5013654;28;20080;-76
2021/03/16 11:27:36;;;;;;;7.00;0.50;;;8.40;81.90;;;;;;5014764;28;20013;-75
2021/03/16 11:30:04;;;;;;;5.97;0.63;;;8.40;82.70;;;;;;5013535;28;20390;-75
2021/03/16 11:32:30;;;;;;;6.72;0.40;;;8.50;82.60;;;;;;5019870;28;20061;-75
2021/03/16 11:34:55;;;;;;;4.68;0.57;;;8.60;81.50;;;;;;5011010;28;20105;-75
2021/03/16 11:37:21;;;;;;;6.72;0.50;;;8.60;81.20;;;;;;5013574;28;20034;-75
2021/03/16 11:39:46;;;;;;;8.18;0.57;;;8.60;80.00;;;;;;5012268;28;20030;-75
2021/03/16 11:42:20;;;;;;;3.20;0.40;;;8.70;80.40;;;;;;5010847;28;20533;-76
2021/03/16 11:44:46;;;;;;;6.20;0.40;;;8.70;79.00;;;;;;5003762;28;20085;-75
2021/03/16 11:47:11;;;;;;;6.72;0.40;;;8.70;78.60;;;;;;4995335;28;20522;-76
2021/03/16 11:49:37;;;;;;;2.55;0.50;;;8.60;79.20;;;;;;5011763;28;20497;-76
2021/03/16 11:52:03;;;;;;;8.55;0.40;;;8.70;79.80;;;;;;4996011;28;20367;-76
2021/03/16 11:54:29;;;;;;;4.15;0.30;;;8.80;79.20;;;;;;5014445;28;20076;-76
2021/03/16 11:56:55;;;;;;;4.55;0.40;;;8.90;78.40;;;;;;5014767;28;20051;-76
2021/03/16 11:59:20;;;;;;;6.47;0.47;;;8.90;77.00;;;;;;5014355;28;20032;-76
2021/03/16 12:01:46;;;;;;;3.33;0.32;;;9.00;78.60;;;;;;5014399;28;20109;-76
2021/03/16 12:04:11;;;;;;;4.28;0.40;;;9.00;76.90;;;;;;5012708;28;20053;-76
2021/03/16 12:06:37;;;;;;;3.13;0.32;;;9.00;77.60;;;;;;5014410;28;20077;-76
2021/03/16 12:09:02;;;;;;;5.15;0.40;;;9.00;77.50;;;;;;5013775;28;20600;-76
2021/03/16 12:11:28;;;;;;;3.50;0.40;;;9.00;77.20;;;;;;5014431;28;20084;-76
2021/03/16 12:13:54;;;;;;;3.85;0.30;;;9.10;77.50;;;;;;5014706;28;20030;-76
2021/03/16 12:16:19;;;;;;;3.50;0.30;;;9.20;78.40;;;;;;5013390;28;20026;-76
2021/03/16 12:18:45;;;;;;;8.07;0.70;;;9.30;77.80;;;;;;5012708;28;20026;-76
2021/03/16 12:21:10;;;;;;;4.00;0.40;;;9.30;78.20;;;;;;5014019;28;20021;-76
2021/03/16 12:23:36;;;;;;;5.10;0.30;;;9.30;78.30;;;;;;5002935;28;20026;-76
2021/03/16 12:26:01;;;;;;;6.25;0.50;;;9.20;78.40;;;;;;5006538;28;20025;-76
2021/03/16 12:28:27;;;;;;;9.10;0.82;;;9.20;78.70;;;;;;4996916;28;20030;-76
2021/03/16 12:30:52;;;;;;;5.63;0.38;;;9.20;79.80;;;;;;4996101;28;20026;-76
2021/03/16 12:33:19;;;;;;;3.15;0.30;;;9.20;78.20;;;;;;5012426;28;20038;-76
2021/03/16 12:35:45;;;;;;;6.68;0.57;;;9.20;78.90;;;;;;5013577;28;20028;-76
2021/03/16 12:38:10;;;;;;;6.75;0.57;;;9.20;78.80;;;;;;5013502;28;20453;-76
2021/03/16 12:40:36;;;;;;;4.47;0.40;;;9.20;79.60;;;;;;5013216;28;20033;-76
2021/03/16 12:43:02;;;;;;;3.05;0.40;;;9.20;78.50;;;;;;5008907;28;20036;-76
2021/03/16 12:45:28;;;;;;;4.40;0.95;;;9.20;80.00;;;;;;5013809;28;20045;-76
2021/03/16 12:47:55;;;;;;;2.63;0.40;;;9.30;80.60;;;;;;5012378;28;20033;-76
2021/03/16 12:50:21;;;;;;;2.45;0.35;;;9.30;79.40;;;;;;5012725;28;20022;-75
2021/03/16 12:52:47;;;;;;;8.57;1.77;;;9.40;80.70;;;;;;5013954;28;20494;-76